createdAt,value
2019-01-28T00:00:52.191Z,94.32
2019-01-28T00:01:57.665Z,93.75
2019-01-28T00:03:03.152Z,94.03
2019-01-28T00:04:08.639Z,94.23
2019-01-28T00:05:14.173Z,94.03
2019-01-28T00:06:20.698Z,94.13
2019-01-28T00:07:25.163Z,94.13
2019-01-28T00:08:30.696Z,93.75
2019-01-28T00:09:36.191Z,93.65
2019-01-28T00:10:41.690Z,93.46
2019-01-28T00:11:47.183Z,93.84
2019-01-28T00:12:53.717Z,94.03
2019-01-28T00:13:58.156Z,93.84
2019-01-28T00:15:03.714Z,94.23
2019-01-28T00:16:09.249Z,94.13
2019-01-28T00:17:14.742Z,93.75
2019-01-28T00:18:20.267Z,93.75
2019-01-28T00:19:26.780Z,93.27
2019-01-28T00:20:31.235Z,93.27
2019-01-28T00:21:36.755Z,93.27
2019-01-28T00:22:42.279Z,93.65
2019-01-28T00:23:47.764Z,93.18
2019-01-28T00:24:53.271Z,93.08
2019-01-28T00:25:59.802Z,93.37
2019-01-28T00:27:04.253Z,93.37
2019-01-28T00:28:09.783Z,93.37
2019-01-28T00:29:15.310Z,93.08
2019-01-28T00:30:20.780Z,93.65
2019-01-28T00:31:26.326Z,93.84
2019-01-28T00:32:32.825Z,93.94
2019-01-28T00:33:37.327Z,93.27
2019-01-28T00:34:42.817Z,93.18
2019-01-28T00:35:48.383Z,92.90
2019-01-28T00:36:53.825Z,92.99
2019-01-28T00:37:59.350Z,93.37
2019-01-28T00:39:05.787Z,93.37
2019-01-28T00:40:10.328Z,92.99
2019-01-28T00:41:15.843Z,93.46
2019-01-28T00:42:21.364Z,93.46
2019-01-28T00:43:26.900Z,93.65
2019-01-28T00:44:32.381Z,93.94
2019-01-28T00:45:38.921Z,93.75
2019-01-28T00:46:43.417Z,93.56
2019-01-28T00:47:48.924Z,94.79
2019-01-28T00:48:54.347Z,94.51
2019-01-28T00:49:59.927Z,94.42
2019-01-28T00:51:05.369Z,94.89
2019-01-28T00:52:11.892Z,94.51
2019-01-28T00:53:16.429Z,95.27
2019-01-28T00:54:21.906Z,95.17
2019-01-28T00:55:27.421Z,94.79
2019-01-28T00:56:32.917Z,95.46
2019-01-28T00:57:38.403Z,95.46
2019-01-28T00:58:44.955Z,95.84
2019-01-28T00:59:49.444Z,95.93
2019-01-28T01:00:55.739Z,95.74
2019-01-28T01:02:00.452Z,95.84
2019-01-28T01:03:05.985Z,95.55
2019-01-28T01:04:11.481Z,95.55
2019-01-28T01:05:17.965Z,95.84
2019-01-28T01:06:22.490Z,95.65
2019-01-28T01:07:28.003Z,96.22
2019-01-28T01:08:33.487Z,95.93
2019-01-28T01:09:38.943Z,96.22
2019-01-28T01:10:44.504Z,95.93
2019-01-28T01:11:50.992Z,95.93
2019-01-28T01:12:55.521Z,96.41
2019-01-28T01:14:01.039Z,96.41
2019-01-28T01:15:06.538Z,96.69
2019-01-28T01:16:12.049Z,96.88
2019-01-28T01:17:17.586Z,96.88
2019-01-28T01:18:24.062Z,96.31
2019-01-28T01:19:28.507Z,96.41
2019-01-28T01:20:34.052Z,96.12
2019-01-28T01:21:39.568Z,95.93
2019-01-28T01:22:45.088Z,95.74
2019-01-28T01:23:50.544Z,96.12
2019-01-28T01:24:57.061Z,96.31
2019-01-28T01:26:01.571Z,96.22
2019-01-28T01:27:07.124Z,96.31
2019-01-28T01:28:12.607Z,96.97
2019-01-28T01:29:18.095Z,96.78
2019-01-28T01:30:23.556Z,96.97
2019-01-28T01:31:30.060Z,97.55
2019-01-28T01:32:34.601Z,97.36
2019-01-28T01:33:40.133Z,97.64
2019-01-28T01:34:45.602Z,96.97
2019-01-28T01:35:51.106Z,96.41
2019-01-28T01:36:56.631Z,96.69
2019-01-28T01:38:03.135Z,96.59
2019-01-28T01:39:07.592Z,96.41
2019-01-28T01:40:13.184Z,97.26
2019-01-28T01:41:18.634Z,96.41
2019-01-28T01:42:24.109Z,96.59
2019-01-28T01:43:29.684Z,96.55
2019-01-28T01:44:36.143Z,96.41
2019-01-28T01:45:40.670Z,96.88
2019-01-28T01:46:46.174Z,96.92
2019-01-28T01:47:51.687Z,96.92
2019-01-28T01:48:57.227Z,96.36
2019-01-28T01:50:02.689Z,96.92
2019-01-28T01:51:09.244Z,97.45
2019-01-28T01:52:13.722Z,96.88
2019-01-28T01:53:19.205Z,96.50
2019-01-28T01:54:24.716Z,97.26
2019-01-28T01:55:30.202Z,96.59
2019-01-28T01:56:35.726Z,96.45
2019-01-28T01:57:42.265Z,96.73
2019-01-28T01:58:46.776Z,96.73
2019-01-28T01:59:52.261Z,97.40
2019-01-28T02:00:57.770Z,97.12
2019-01-28T02:02:03.265Z,96.88
2019-01-28T02:03:08.781Z,97.45
2019-01-28T02:04:15.254Z,97.07
2019-01-28T02:05:19.759Z,97.59
2019-01-28T02:06:25.247Z,97.40
2019-01-28T02:07:30.799Z,97.59
2019-01-28T02:08:36.262Z,96.83
2019-01-28T02:09:41.753Z,96.83
2019-01-28T02:10:48.220Z,96.64
2019-01-28T02:11:52.713Z,97.17
2019-01-28T02:12:58.322Z,96.55
2019-01-28T02:14:03.827Z,96.73
2019-01-28T02:15:09.318Z,95.69
2019-01-28T02:16:14.851Z,96.08
2019-01-28T02:17:21.393Z,96.73
2019-01-28T02:18:25.804Z,96.08
2019-01-28T02:19:31.352Z,96.36
2019-01-28T02:20:36.869Z,97.02
2019-01-28T02:21:42.322Z,96.26
2019-01-28T02:22:47.837Z,96.78
2019-01-28T02:23:54.386Z,96.64
2019-01-28T02:24:58.803Z,96.64
2019-01-28T02:26:04.370Z,95.69
2019-01-28T02:27:09.836Z,96.83
2019-01-28T02:28:15.390Z,96.36
2019-01-28T02:29:20.914Z,97.12
2019-01-28T02:30:27.420Z,96.45
2019-01-28T02:31:31.901Z,96.83
2019-01-28T02:32:37.420Z,97.40
2019-01-28T02:33:42.891Z,97.21
2019-01-28T02:34:48.386Z,96.92
2019-01-28T02:35:53.923Z,97.31
2019-01-28T02:37:00.448Z,96.92
2019-01-28T02:38:04.939Z,97.69
2019-01-28T02:39:10.405Z,97.02
2019-01-28T02:40:15.906Z,97.31
2019-01-28T02:41:21.434Z,97.40
2019-01-28T02:42:26.942Z,97.21
2019-01-28T02:43:33.458Z,97.31
2019-01-28T02:44:37.988Z,96.92
2019-01-28T02:45:43.433Z,97.02
2019-01-28T02:46:48.999Z,97.21
2019-01-28T02:47:54.456Z,97.21
2019-01-28T02:48:59.954Z,97.50
2019-01-28T02:50:06.477Z,97.31
2019-01-28T02:51:10.966Z,97.50
2019-01-28T02:52:16.455Z,97.78
2019-01-28T02:53:21.997Z,97.69
2019-01-28T02:54:27.500Z,98.07
2019-01-28T02:55:33.021Z,97.88
2019-01-28T02:56:39.517Z,97.69
2019-01-28T02:57:44.025Z,98.25
2019-01-28T02:58:49.518Z,98.16
2019-01-28T02:59:54.999Z,98.92
2019-01-28T03:01:00.550Z,98.25
2019-01-28T03:02:06.023Z,97.97
2019-01-28T03:03:12.531Z,98.92
2019-01-28T03:04:16.982Z,98.63
2019-01-28T03:05:22.542Z,98.92
2019-01-28T03:06:28.080Z,99.20
2019-01-28T03:07:33.554Z,98.82
2019-01-28T03:08:39.066Z,99.11
2019-01-28T03:09:45.548Z,98.73
2019-01-28T03:10:50.047Z,99.11
2019-01-28T03:11:55.554Z,99.11
2019-01-28T03:13:01.099Z,99.11
2019-01-28T03:14:06.592Z,99.11
2019-01-28T03:15:12.104Z,98.73
2019-01-28T03:16:18.644Z,98.92
2019-01-28T03:17:23.084Z,98.73
2019-01-28T03:18:28.619Z,98.63
2019-01-28T03:19:34.086Z,99.01
2019-01-28T03:20:39.615Z,98.82
2019-01-28T03:21:45.128Z,99.11
2019-01-28T03:22:51.601Z,99.11
2019-01-28T03:23:56.116Z,98.82
2019-01-28T03:25:01.618Z,98.92
2019-01-28T03:26:07.124Z,99.01
2019-01-28T03:27:12.637Z,98.82
2019-01-28T03:28:18.142Z,99.11
2019-01-28T03:29:24.686Z,99.11
2019-01-28T03:30:29.166Z,99.01
2019-01-28T03:31:34.661Z,98.92
2019-01-28T03:32:40.061Z,99.58
2019-01-28T03:33:45.673Z,98.92
2019-01-28T03:34:51.144Z,98.73
2019-01-28T03:35:57.685Z,99.11
2019-01-28T03:37:02.184Z,98.96
2019-01-28T03:38:07.675Z,98.96
2019-01-28T03:39:13.190Z,98.96
2019-01-28T03:40:18.681Z,98.87
2019-01-28T03:41:24.163Z,99.34
2019-01-28T03:42:30.717Z,98.49
2019-01-28T03:43:35.229Z,99.25
2019-01-28T03:44:40.738Z,98.96
2019-01-28T03:45:46.230Z,98.77
2019-01-28T03:46:51.738Z,99.25
2019-01-28T03:47:57.218Z,98.87
2019-01-28T03:49:03.735Z,98.87
2019-01-28T03:50:08.231Z,98.77
2019-01-28T03:51:13.738Z,98.77
2019-01-28T03:52:19.216Z,98.77
2019-01-28T03:53:24.729Z,98.96
2019-01-28T03:54:30.241Z,99.25
2019-01-28T03:55:36.746Z,98.77
2019-01-28T03:56:41.264Z,98.68
2019-01-28T03:57:46.770Z,98.77
2019-01-28T03:58:52.294Z,98.68
2019-01-28T03:59:57.790Z,98.58
2019-01-28T04:01:03.314Z,98.58
2019-01-28T04:02:09.811Z,98.58
2019-01-28T04:03:14.257Z,98.77
2019-01-28T04:04:19.751Z,98.87
2019-01-28T04:05:25.300Z,99.15
2019-01-28T04:06:30.822Z,98.77
2019-01-28T04:07:36.210Z,98.96
2019-01-28T04:08:42.767Z,99.06
2019-01-28T04:09:47.318Z,99.06
2019-01-28T04:10:52.829Z,98.77
2019-01-28T04:11:58.313Z,99.34
2019-01-28T04:13:03.808Z,99.06
2019-01-28T04:14:09.353Z,99.06
2019-01-28T04:15:15.878Z,99.34
2019-01-28T04:16:20.350Z,98.77
2019-01-28T04:17:25.856Z,99.06
2019-01-28T04:18:31.435Z,99.06
2019-01-28T04:19:36.856Z,98.96
2019-01-28T04:20:42.358Z,98.58
2019-01-28T04:21:48.880Z,99.06
2019-01-28T04:22:53.308Z,99.25
2019-01-28T04:23:58.883Z,99.53
2019-01-28T04:25:04.368Z,99.53
2019-01-28T04:26:09.893Z,99.06
2019-01-28T04:27:15.407Z,99.25
2019-01-28T04:28:21.915Z,99.91
2019-01-28T04:29:26.410Z,99.63
2019-01-28T04:30:31.932Z,99.99
2019-01-28T04:31:37.421Z,99.99
2019-01-28T04:32:42.929Z,99.99
2019-01-28T04:33:48.421Z,99.99
2019-01-28T04:34:54.922Z,99.99
2019-01-28T04:35:59.438Z,99.99
2019-01-28T04:37:04.935Z,99.99
2019-01-28T04:38:10.418Z,99.99
2019-01-28T04:39:15.896Z,99.99
2019-01-28T04:40:21.443Z,99.99
2019-01-28T04:41:27.943Z,99.99
2019-01-28T04:42:32.462Z,99.99
2019-01-28T04:43:37.973Z,99.99
2019-01-28T04:44:43.444Z,99.99
2019-01-28T04:45:48.987Z,99.99
2019-01-28T04:46:54.508Z,99.99
2019-01-28T04:48:00.988Z,99.99
2019-01-28T04:49:05.487Z,99.99
2019-01-28T04:50:10.955Z,99.99
2019-01-28T04:51:16.493Z,99.99
2019-01-28T04:52:21.980Z,99.99
2019-01-28T04:53:27.500Z,99.99
2019-01-28T04:54:33.980Z,99.99
2019-01-28T04:55:38.863Z,99.99
2019-01-28T04:56:44.014Z,99.99
2019-01-28T04:57:49.515Z,99.99
2019-01-28T04:58:54.988Z,99.99
2019-01-28T05:00:00.436Z,99.99
2019-01-28T05:01:07.036Z,99.99
2019-01-28T05:02:11.557Z,99.99
2019-01-28T05:03:17.027Z,99.99
2019-01-28T05:04:22.522Z,99.99
2019-01-28T05:05:28.086Z,99.99
2019-01-28T05:06:33.549Z,99.99
2019-01-28T05:07:40.067Z,99.99
2019-01-28T05:08:44.547Z,99.99
2019-01-28T05:09:50.067Z,99.99
2019-01-28T05:10:55.534Z,99.99
2019-01-28T05:12:01.092Z,99.99
2019-01-28T05:13:06.612Z,99.99
2019-01-28T05:14:13.128Z,99.99
2019-01-28T05:15:17.630Z,99.99
2019-01-28T05:16:23.190Z,99.99
2019-01-28T05:17:28.599Z,99.99
2019-01-28T05:18:34.119Z,99.99
2019-01-28T05:19:39.572Z,99.99
2019-01-28T05:20:46.108Z,99.99
2019-01-28T05:21:50.600Z,99.99
2019-01-28T05:22:56.109Z,99.99
2019-01-28T05:24:01.626Z,99.99
2019-01-28T05:25:07.106Z,99.99
2019-01-28T05:26:12.669Z,99.99
2019-01-28T05:27:19.177Z,99.99
2019-01-28T05:28:23.671Z,99.99
2019-01-28T05:29:29.160Z,99.99
2019-01-28T05:30:34.672Z,99.99
2019-01-28T05:31:40.203Z,99.99
2019-01-28T05:32:45.662Z,99.99
2019-01-28T05:33:52.207Z,99.99
2019-01-28T05:34:56.679Z,99.99
2019-01-28T05:36:02.199Z,99.99
2019-01-28T05:37:07.665Z,99.99
2019-01-28T05:38:13.180Z,99.99
2019-01-28T05:39:18.685Z,99.99
2019-01-28T05:40:25.189Z,99.99
2019-01-28T05:41:29.734Z,99.99
2019-01-28T05:42:35.173Z,99.99
2019-01-28T05:43:40.725Z,99.99
2019-01-28T05:44:46.226Z,99.99
2019-01-28T05:45:51.730Z,99.53
2019-01-28T05:46:58.247Z,99.99
2019-01-28T05:48:02.765Z,99.99
2019-01-28T05:49:08.231Z,99.99
2019-01-28T05:50:13.742Z,99.68
2019-01-28T05:51:19.241Z,99.63
2019-01-28T05:52:24.738Z,99.99
2019-01-28T05:53:31.246Z,99.68
2019-01-28T05:54:35.764Z,99.99
2019-01-28T05:55:41.282Z,99.99
2019-01-28T05:56:46.796Z,99.99
2019-01-28T05:57:52.283Z,99.99
2019-01-28T05:58:57.780Z,99.99
2019-01-28T06:00:04.277Z,99.99
2019-01-28T06:01:08.818Z,99.99
2019-01-28T06:02:14.309Z,99.99
2019-01-28T06:03:19.817Z,99.99
2019-01-28T06:04:25.283Z,99.99
2019-01-28T06:05:30.828Z,99.99
2019-01-28T06:06:37.292Z,99.99
2019-01-28T06:07:41.831Z,99.99
2019-01-28T06:08:47.307Z,99.99
2019-01-28T06:09:52.832Z,99.99
2019-01-28T06:10:58.353Z,99.99
2019-01-28T06:12:03.846Z,99.99
2019-01-28T06:13:10.336Z,99.99
2019-01-28T06:14:14.868Z,99.99
2019-01-28T06:15:20.345Z,99.99
2019-01-28T06:16:25.872Z,99.99
2019-01-28T06:17:38.579Z,99.99
2019-01-28T06:18:36.845Z,99.99
2019-01-28T06:19:43.393Z,99.99
2019-01-28T06:20:47.809Z,99.99
2019-01-28T06:21:53.345Z,99.99
2019-01-28T06:22:58.886Z,99.99
2019-01-28T06:24:04.382Z,99.99
2019-01-28T06:25:09.892Z,99.99
2019-01-28T06:26:16.431Z,99.99
2019-01-28T06:27:20.916Z,99.99
2019-01-28T06:28:26.436Z,99.99
2019-01-28T06:29:31.913Z,99.99
2019-01-28T06:30:37.440Z,99.68
2019-01-28T06:31:42.922Z,99.99
2019-01-28T06:32:49.432Z,99.99
2019-01-28T06:33:53.923Z,99.99
2019-01-28T06:34:59.463Z,99.99
2019-01-28T06:36:04.937Z,99.99
2019-01-28T06:37:10.441Z,99.99
2019-01-28T06:38:15.932Z,99.99
2019-01-28T06:39:22.406Z,99.68
2019-01-28T06:40:26.962Z,99.99
2019-01-28T06:41:32.473Z,99.99
2019-01-28T06:42:37.991Z,99.99
2019-01-28T06:43:43.495Z,99.96
2019-01-28T06:44:49.008Z,99.99
2019-01-28T06:45:55.540Z,99.49
2019-01-28T06:47:00.050Z,99.99
2019-01-28T06:48:05.464Z,99.99
2019-01-28T06:49:11.005Z,99.99
2019-01-28T06:50:16.512Z,99.72
2019-01-28T06:51:22.006Z,99.87
2019-01-28T06:52:28.480Z,99.96
2019-01-28T06:53:33.022Z,99.99
2019-01-28T06:54:38.556Z,99.99
2019-01-28T06:55:44.020Z,99.99
2019-01-28T06:56:49.541Z,99.99
2019-01-28T06:57:55.066Z,99.99
2019-01-28T06:59:01.570Z,99.99
2019-01-28T07:00:06.090Z,99.99
2019-01-28T07:01:11.534Z,99.99
2019-01-28T07:02:17.063Z,99.99
2019-01-28T07:03:22.572Z,99.99
2019-01-28T07:04:28.091Z,99.99
2019-01-28T07:05:34.572Z,99.99
2019-01-28T07:06:39.080Z,99.99
2019-01-28T07:07:44.570Z,99.99
2019-01-28T07:08:50.049Z,99.99
2019-01-28T07:09:55.590Z,99.99
2019-01-28T07:11:01.072Z,99.99
2019-01-28T07:12:07.635Z,99.99
2019-01-28T07:13:12.152Z,99.99
2019-01-28T07:14:17.616Z,99.99
2019-01-28T07:15:23.133Z,99.99
2019-01-28T07:16:28.618Z,99.99
2019-01-28T07:17:34.077Z,99.99
2019-01-28T07:18:40.718Z,99.99
2019-01-28T07:19:45.154Z,99.99
2019-01-28T07:20:50.658Z,99.99
2019-01-28T07:21:56.127Z,99.99
2019-01-28T07:23:01.639Z,99.99
2019-01-28T07:24:07.160Z,99.99
2019-01-28T07:25:13.659Z,99.99
2019-01-28T07:26:18.172Z,99.99
2019-01-28T07:27:23.653Z,99.99
2019-01-28T07:28:29.125Z,99.99
2019-01-28T07:29:34.639Z,99.99
2019-01-28T07:30:40.255Z,99.99
2019-01-28T07:31:46.731Z,99.99
2019-01-28T07:32:51.184Z,99.99
2019-01-28T07:33:56.692Z,99.99
2019-01-28T07:35:02.231Z,99.99
2019-01-28T07:36:07.731Z,99.99
2019-01-28T07:37:13.212Z,99.99
2019-01-28T07:38:19.701Z,99.99
2019-01-28T07:39:24.210Z,99.99
2019-01-28T07:40:29.754Z,99.99
2019-01-28T07:41:35.249Z,99.99
2019-01-28T07:42:40.783Z,99.99
2019-01-28T07:43:46.196Z,99.99
2019-01-28T07:44:52.781Z,99.99
2019-01-28T07:45:57.289Z,99.99
2019-01-28T07:47:02.802Z,99.99
2019-01-28T07:48:08.250Z,99.99
2019-01-28T07:49:13.779Z,99.99
2019-01-28T07:50:19.256Z,99.99
2019-01-28T07:51:25.747Z,99.99
2019-01-28T07:52:30.257Z,99.99
2019-01-28T07:53:35.780Z,99.99
2019-01-28T07:54:41.310Z,99.99
2019-01-28T07:55:46.808Z,99.99
2019-01-28T07:56:52.309Z,99.99
2019-01-28T07:57:58.830Z,99.99
2019-01-28T07:59:03.302Z,99.99
2019-01-28T08:00:08.825Z,99.99
2019-01-28T08:01:14.311Z,99.99
2019-01-28T08:02:19.817Z,99.99
2019-01-28T08:03:26.648Z,99.99
2019-01-28T08:04:31.856Z,99.99
2019-01-28T08:05:36.334Z,99.99
2019-01-28T08:06:41.798Z,99.99
2019-01-28T08:07:47.344Z,99.99
2019-01-28T08:08:52.758Z,99.99
2019-01-28T08:09:58.371Z,99.99
2019-01-28T08:11:04.873Z,99.99
2019-01-28T08:12:09.373Z,99.99
2019-01-28T08:13:14.896Z,99.99
2019-01-28T08:14:20.408Z,99.99
2019-01-28T08:15:25.877Z,99.99
2019-01-28T08:16:31.373Z,99.99
2019-01-28T08:17:37.917Z,99.99
2019-01-28T08:18:42.393Z,99.99
2019-01-28T08:19:47.891Z,99.99
2019-01-28T08:20:53.412Z,99.99
2019-01-28T08:21:58.896Z,99.99
2019-01-28T08:23:04.418Z,99.99
2019-01-28T08:24:10.959Z,99.99
2019-01-28T08:25:15.463Z,99.99
2019-01-28T08:26:20.868Z,99.99
2019-01-28T08:27:26.469Z,99.99
2019-01-28T08:28:36.790Z,99.99
2019-01-28T08:29:37.449Z,99.99
2019-01-28T08:30:43.976Z,99.99
2019-01-28T08:31:48.460Z,99.99
2019-01-28T08:32:54.180Z,99.99
2019-01-28T08:33:59.458Z,99.99
2019-01-28T08:35:04.974Z,99.99
2019-01-28T08:36:10.475Z,99.99
2019-01-28T08:37:16.963Z,99.99
2019-01-28T08:38:21.489Z,99.99
2019-01-28T08:39:26.971Z,99.99
2019-01-28T08:40:32.520Z,99.99
2019-01-28T08:41:37.976Z,99.99
2019-01-28T08:42:43.464Z,99.99
2019-01-28T08:43:50.054Z,99.99
2019-01-28T08:44:54.575Z,99.99
2019-01-28T08:46:00.038Z,99.99
2019-01-28T08:47:05.527Z,99.99
2019-01-28T08:48:17.866Z,99.99
2019-01-28T08:49:16.563Z,99.99
2019-01-28T08:50:23.071Z,99.99
2019-01-28T08:51:28.251Z,99.99
2019-01-28T08:52:33.069Z,99.91
2019-01-28T08:53:38.533Z,99.99
2019-01-28T08:54:44.078Z,99.99
2019-01-28T08:55:49.542Z,99.99
2019-01-28T08:56:56.055Z,99.99
2019-01-28T08:58:00.575Z,99.99
2019-01-28T08:59:06.108Z,99.99
2019-01-28T09:00:11.592Z,99.99
2019-01-28T09:01:17.114Z,99.99
2019-01-28T09:02:22.624Z,99.99
2019-01-28T09:03:29.129Z,99.99
2019-01-28T09:04:33.641Z,99.99
2019-01-28T09:05:39.122Z,99.99
2019-01-28T09:06:44.612Z,99.99
2019-01-28T09:07:50.155Z,99.99
2019-01-28T09:08:55.640Z,99.99
2019-01-28T09:10:02.190Z,99.99
2019-01-28T09:11:06.674Z,99.99
2019-01-28T09:12:12.182Z,99.99
2019-01-28T09:13:17.677Z,99.99
2019-01-28T09:14:23.182Z,99.99
2019-01-28T09:15:28.713Z,99.99
2019-01-28T09:16:35.212Z,99.99
2019-01-28T09:17:39.679Z,99.99
2019-01-28T09:18:45.230Z,99.99
2019-01-28T09:19:50.712Z,99.99
2019-01-28T09:20:56.222Z,99.99
2019-01-28T09:22:01.709Z,99.99
2019-01-28T09:23:08.223Z,99.99
2019-01-28T09:24:12.711Z,99.99
2019-01-28T09:25:18.231Z,99.99
2019-01-28T09:26:23.748Z,99.99
2019-01-28T09:27:29.255Z,99.99
2019-01-28T09:28:34.765Z,99.99
2019-01-28T09:29:41.276Z,99.99
2019-01-28T09:30:45.754Z,99.99
2019-01-28T09:31:51.169Z,99.99
2019-01-28T09:32:56.772Z,99.99
2019-01-28T09:34:02.262Z,99.99
2019-01-28T09:35:07.783Z,99.99
2019-01-28T09:36:14.241Z,99.99
2019-01-28T09:37:18.751Z,99.99
2019-01-28T09:38:24.308Z,99.99
2019-01-28T09:39:29.808Z,99.99
2019-01-28T09:40:35.333Z,99.99
2019-01-28T09:41:40.813Z,99.99
2019-01-28T09:42:47.379Z,99.99
2019-01-28T09:43:51.823Z,99.92
2019-01-28T09:44:57.360Z,99.16
2019-01-28T09:46:02.851Z,99.16
2019-01-28T09:47:09.268Z,99.54
2019-01-28T09:48:13.756Z,99.54
2019-01-28T09:49:20.395Z,99.73
2019-01-28T09:50:24.834Z,99.35
2019-01-28T09:51:30.354Z,99.44
2019-01-28T09:52:35.851Z,99.26
2019-01-28T09:53:41.330Z,99.07
2019-01-28T09:54:46.902Z,99.35
2019-01-28T09:55:53.407Z,98.50
2019-01-28T09:56:57.905Z,98.50
2019-01-28T09:58:03.405Z,98.88
2019-01-28T09:59:08.961Z,98.21
2019-01-28T10:00:14.420Z,98.59
2019-01-28T10:01:19.950Z,98.97
2019-01-28T10:02:26.463Z,98.79
2019-01-28T10:03:30.974Z,99.64
2019-01-28T10:04:36.398Z,99.35
2019-01-28T10:05:41.945Z,98.97
2019-01-28T10:06:47.480Z,98.97
2019-01-28T10:07:52.967Z,98.97
2019-01-28T10:08:59.489Z,98.69
2019-01-28T10:10:03.994Z,98.40
2019-01-28T10:11:09.522Z,98.69
2019-01-28T10:12:15.006Z,98.69
2019-01-28T10:13:20.514Z,98.50
2019-01-28T10:14:26.035Z,98.50
2019-01-28T10:15:32.548Z,97.64
2019-01-28T10:16:37.041Z,97.45
2019-01-28T10:17:42.508Z,98.21
2019-01-28T10:18:48.059Z,97.74
2019-01-28T10:19:53.542Z,97.74
2019-01-28T10:20:59.039Z,97.36
2019-01-28T10:22:05.566Z,96.98
2019-01-28T10:23:10.115Z,96.98
2019-01-28T10:24:15.641Z,97.27
2019-01-28T10:25:21.123Z,96.98
2019-01-28T10:26:26.588Z,96.98
2019-01-28T10:27:32.121Z,96.79
2019-01-28T10:28:38.651Z,96.79
2019-01-28T10:29:43.113Z,96.88
2019-01-28T10:30:48.646Z,96.88
2019-01-28T10:31:54.149Z,96.60
2019-01-28T10:32:59.671Z,96.69
2019-01-28T10:34:06.317Z,95.94
2019-01-28T10:35:11.644Z,95.94
2019-01-28T10:36:16.132Z,95.75
2019-01-28T10:37:21.633Z,95.84
2019-01-28T10:38:28.163Z,95.46
2019-01-28T10:39:32.715Z,95.27
2019-01-28T10:40:38.198Z,94.70
2019-01-28T10:41:44.703Z,94.23
2019-01-28T10:42:49.202Z,94.03
2019-01-28T10:43:54.716Z,94.60
2019-01-28T10:45:00.288Z,94.70
2019-01-28T10:46:05.720Z,94.98
2019-01-28T10:47:11.231Z,95.27
2019-01-28T10:48:17.750Z,94.84
2019-01-28T10:49:22.221Z,94.13
2019-01-28T10:50:27.700Z,94.89
2019-01-28T10:51:33.142Z,94.60
2019-01-28T10:52:38.742Z,94.79
2019-01-28T10:53:44.272Z,94.70
2019-01-28T10:54:50.876Z,95.46
2019-01-28T10:55:55.277Z,95.65
2019-01-28T10:57:00.761Z,95.55
2019-01-28T10:58:06.317Z,96.03
2019-01-28T10:59:11.822Z,96.03
2019-01-28T11:00:17.322Z,96.41
2019-01-28T11:01:23.820Z,96.50
2019-01-28T11:02:28.314Z,96.88
2019-01-28T11:03:33.783Z,96.98
2019-01-28T11:04:39.363Z,97.17
2019-01-28T11:05:44.823Z,97.64
2019-01-28T11:06:50.332Z,97.36
2019-01-28T11:07:56.863Z,97.64
2019-01-28T11:09:01.356Z,97.74
2019-01-28T11:10:06.877Z,98.31
2019-01-28T11:11:12.374Z,98.12
2019-01-28T11:12:17.994Z,98.40
2019-01-28T11:13:23.468Z,98.59
2019-01-28T11:14:30.001Z,98.55
2019-01-28T11:15:34.410Z,98.69
2019-01-28T11:16:39.954Z,98.69
2019-01-28T11:17:45.413Z,98.31
2019-01-28T11:18:57.384Z,97.78
2019-01-28T11:19:56.383Z,97.78
2019-01-28T11:21:03.010Z,97.74
2019-01-28T11:22:07.423Z,97.07
2019-01-28T11:23:12.992Z,97.74
2019-01-28T11:24:18.509Z,97.64
2019-01-28T11:25:24.073Z,97.55
2019-01-28T11:26:29.564Z,96.79
2019-01-28T11:27:35.972Z,96.88
2019-01-28T11:28:40.608Z,96.60
2019-01-28T11:29:46.020Z,96.88
2019-01-28T11:30:51.494Z,96.69
2019-01-28T11:31:57.117Z,96.50
2019-01-28T11:33:02.465Z,96.88
2019-01-28T11:34:09.078Z,96.79
2019-01-28T11:35:13.646Z,96.98
2019-01-28T11:36:19.001Z,96.79
2019-01-28T11:37:24.493Z,96.22
2019-01-28T11:38:30.215Z,96.50
2019-01-28T11:39:35.594Z,96.22
2019-01-28T11:40:42.113Z,96.69
2019-01-28T11:41:46.690Z,96.69
2019-01-28T11:42:52.213Z,96.69
2019-01-28T11:43:57.657Z,96.22
2019-01-28T11:45:03.084Z,96.60
2019-01-28T11:46:08.665Z,96.03
2019-01-28T11:47:15.267Z,96.31
2019-01-28T11:48:19.612Z,96.69
2019-01-28T11:49:25.046Z,97.17
2019-01-28T11:50:30.610Z,97.36
2019-01-28T11:51:36.107Z,96.41
2019-01-28T11:52:41.662Z,96.22
2019-01-28T11:53:48.162Z,96.31
2019-01-28T11:54:52.669Z,96.79
2019-01-28T11:55:58.163Z,96.60
2019-01-28T11:57:06.296Z,96.50
2019-01-28T11:58:09.166Z,96.03
2019-01-28T11:59:15.133Z,96.31
2019-01-28T12:00:21.205Z,96.22
2019-01-28T12:01:25.675Z,96.69
2019-01-28T12:02:34.473Z,95.94
2019-01-28T12:03:36.733Z,95.46
2019-01-28T12:04:42.229Z,95.84
2019-01-28T12:05:47.710Z,96.50
2019-01-28T12:06:56.674Z,96.41
2019-01-28T12:07:58.732Z,96.60
2019-01-28T12:09:04.251Z,96.98
2019-01-28T12:10:09.731Z,97.27
2019-01-28T12:11:15.221Z,97.36
2019-01-28T12:12:20.761Z,96.69
2019-01-28T12:13:27.214Z,96.50
2019-01-28T12:14:31.782Z,96.60
2019-01-28T12:15:37.250Z,96.60
2019-01-28T12:16:42.750Z,96.79
2019-01-28T12:17:48.287Z,96.50
2019-01-28T12:18:53.754Z,96.03
2019-01-28T12:20:00.217Z,96.22
2019-01-28T12:21:04.807Z,95.75
2019-01-28T12:22:10.289Z,96.12
2019-01-28T12:23:15.804Z,96.03
2019-01-28T12:24:21.326Z,96.31
2019-01-28T12:25:26.826Z,96.60
2019-01-28T12:26:33.375Z,96.98
2019-01-28T12:27:37.793Z,96.60
2019-01-28T12:28:43.386Z,96.98
2019-01-28T12:29:48.844Z,96.12
2019-01-28T12:30:54.362Z,96.69
2019-01-28T12:31:59.830Z,97.36
2019-01-28T12:33:06.349Z,97.31
2019-01-28T12:34:10.805Z,96.64
2019-01-28T12:35:17.430Z,96.60
2019-01-28T12:36:21.799Z,96.64
2019-01-28T12:37:27.388Z,96.17
2019-01-28T12:38:32.896Z,95.98
2019-01-28T12:39:39.434Z,96.93
2019-01-28T12:40:43.894Z,96.45
2019-01-28T12:41:49.424Z,96.64
2019-01-28T12:42:54.878Z,97.02
2019-01-28T12:44:00.414Z,96.93
2019-01-28T12:45:05.869Z,96.55
2019-01-28T12:46:12.423Z,96.64
2019-01-28T12:47:16.910Z,96.74
2019-01-28T12:48:23.068Z,97.02
2019-01-28T12:49:27.873Z,96.74
2019-01-28T12:50:33.398Z,96.45
2019-01-28T12:51:38.978Z,96.26
2019-01-28T12:52:45.487Z,96.17
2019-01-28T12:53:49.929Z,95.89
2019-01-28T12:54:55.426Z,96.17
2019-01-28T12:56:00.983Z,96.55
2019-01-28T12:57:06.512Z,96.64
2019-01-28T12:58:12.032Z,97.31
2019-01-28T12:59:18.568Z,97.31
2019-01-28T13:00:22.946Z,97.31
2019-01-28T13:01:28.505Z,97.31
2019-01-28T13:02:34.041Z,96.45
2019-01-28T13:03:39.451Z,96.74
2019-01-28T13:04:45.002Z,96.45
2019-01-28T13:05:51.539Z,96.55
2019-01-28T13:06:56.058Z,96.93
2019-01-28T13:08:01.591Z,96.55
2019-01-28T13:09:07.077Z,95.89
2019-01-28T13:10:12.549Z,96.74
2019-01-28T13:11:18.134Z,96.64
2019-01-28T13:12:24.624Z,96.17
2019-01-28T13:13:29.062Z,95.98
2019-01-28T13:14:34.611Z,96.17
2019-01-28T13:15:40.112Z,96.55
2019-01-28T13:16:45.608Z,96.74
2019-01-28T13:17:51.165Z,97.12
2019-01-28T13:18:57.606Z,96.74
2019-01-28T13:20:02.115Z,97.31
2019-01-28T13:21:07.694Z,97.69
2019-01-28T13:22:13.149Z,97.22
2019-01-28T13:23:18.670Z,97.12
2019-01-28T13:24:24.171Z,96.93
2019-01-28T13:25:30.695Z,96.83
2019-01-28T13:26:35.158Z,96.83
2019-01-28T13:27:40.659Z,96.36
2019-01-28T13:28:46.157Z,95.79
2019-01-28T13:29:51.704Z,96.17
2019-01-28T13:30:57.224Z,96.17
2019-01-28T13:32:03.665Z,96.17
2019-01-28T13:33:08.217Z,96.08
2019-01-28T13:34:13.789Z,96.45
2019-01-28T13:35:19.155Z,96.36
2019-01-28T13:36:24.692Z,95.93
2019-01-28T13:37:30.139Z,96.08
2019-01-28T13:38:36.805Z,96.55
2019-01-28T13:39:41.213Z,96.12
2019-01-28T13:40:46.794Z,96.31
2019-01-28T13:41:52.238Z,96.41
2019-01-28T13:42:57.806Z,96.50
2019-01-28T13:44:03.302Z,96.78
2019-01-28T13:45:09.788Z,96.41
2019-01-28T13:46:14.277Z,96.69
2019-01-28T13:47:19.734Z,96.50
2019-01-28T13:48:25.352Z,96.97
2019-01-28T13:49:37.970Z,97.07
2019-01-28T13:50:36.421Z,96.88
2019-01-28T13:51:42.842Z,97.07
2019-01-28T13:52:47.374Z,96.97
2019-01-28T13:53:52.830Z,97.17
2019-01-28T13:54:58.343Z,97.64
2019-01-28T13:56:03.831Z,97.74
2019-01-28T13:57:09.356Z,97.07
2019-01-28T13:58:15.869Z,96.97
2019-01-28T13:59:20.349Z,97.17
2019-01-28T14:00:25.846Z,97.64
2019-01-28T14:01:31.390Z,97.83
2019-01-28T14:02:36.951Z,97.83
2019-01-28T14:03:42.391Z,98.21